CheckWX is a tool to help pilots better visualize weather data.  It is not intended as a substitute for an official pre-flight weather briefing.

19:22:08 UTC

KSBN METAR
South Bend International Airport
South Bend, Indiana, USA
Current

28 mins ago

KSBN 141854Z 30008KT 6SM HZ OVC016 04/01 A2965 RMK AO2 SLP047 T00440006
Observed
Dec-14 @ 18:54 UTC
Wind
  • 300° at 8 KTS
Visibility
6 SM
Flight Rules
MVFR
Conditions
Haze
Cloud Levels
  • Overcast at 1,600' AGL
Temperature
C / 39°F
Dewpoint
C / 34°F
Humidity
81%
Altimeter
29.65" Hg
Pressure
1004.02 hPa
Previous

1 hour ago

KSBN 141754Z 30008KT 7SM OVC018 05/01 A2965 RMK AO2 SLP046 T00500011 10061 21028 56011
Observed
Dec-14 @ 17:54 UTC
Wind
  • 300° at 8 KTS
Visibility
7 SM
Flight Rules
MVFR
Cloud Levels
  • Overcast at 1,800' AGL
Temperature
C / 41°F
Dewpoint
C / 34°F
Humidity
76%
Altimeter
29.65" Hg
Pressure
1004.02 hPa
Previous

2 hours ago

KSBN 141729Z 32009KT 7SM BKN018 BKN080 06/01 A2966 RMK AO2 T00560011
Observed
Dec-14 @ 17:29 UTC
Wind
  • 320° at 9 KTS
Visibility
7 SM
Flight Rules
MVFR
Cloud Levels
  • Broken at 1,800' AGL
  • Broken at 8,000' AGL
Temperature
C / 43°F
Dewpoint
C / 34°F
Humidity
71%
Altimeter
29.66" Hg
Pressure
1004.42 hPa